Time;durP1;ratioP1;P1;durP2;ratioP2;P2;SDS_P1;SDS_P2;PMS_P1;PMS_P2;Temp;Humidity;BMP_temperature;BMP_pressure;BME280_temperature;BME280_humidity;BME280_pressure;Samples;Min_cycle;Max_cycle;Signal;HPM_P1;HPM_P2
2022/08/16 00:01:58;;;;;;;3.60;2.38;;;22.60;49.40;;;;;;5073706;28;20052;-44
2022/08/16 00:04:27;;;;;;;3.08;2.00;;;22.50;49.30;;;;;;5076823;28;20059;-49
2022/08/16 00:06:54;;;;;;;3.13;1.95;;;22.60;49.40;;;;;;5072012;28;20049;-49
2022/08/16 00:09:22;;;;;;;3.20;1.98;;;22.50;49.50;;;;;;5077226;28;20059;-46
2022/08/16 00:11:50;;;;;;;3.13;2.25;;;22.50;49.50;;;;;;5076981;28;20044;-50
2022/08/16 00:14:24;;;;;;;2.67;2.03;;;22.50;49.60;;;;;;5077755;28;20060;-46
2022/08/16 00:16:51;;;;;;;3.45;2.15;;;22.50;49.70;;;;;;5074038;28;20051;-48
2022/08/16 00:19:22;;;;;;;4.47;2.35;;;22.50;49.70;;;;;;5075381;28;20055;-47
2022/08/16 00:21:52;;;;;;;2.92;2.20;;;22.50;49.90;;;;;;5076369;28;20499;-49
2022/08/16 00:24:22;;;;;;;2.85;2.25;;;22.50;49.90;;;;;;5077673;28;20056;-47
2022/08/16 00:26:50;;;;;;;3.83;2.03;;;22.50;49.90;;;;;;5073192;28;20050;-45
2022/08/16 00:29:17;;;;;;;4.20;2.20;;;22.50;49.90;;;;;;5073747;28;20059;-45
2022/08/16 00:31:46;;;;;;;6.10;2.03;;;22.40;49.90;;;;;;5072308;28;20500;-47
2022/08/16 00:34:14;;;;;;;3.88;2.38;;;22.50;49.90;;;;;;5074916;28;20056;-45
2022/08/16 00:36:45;;;;;;;3.55;2.10;;;22.40;49.90;;;;;;5077371;28;20058;-52
2022/08/16 00:39:13;;;;;;;4.72;2.50;;;22.40;49.90;;;;;;5076970;28;20083;-49
2022/08/16 00:41:42;;;;;;;2.45;2.03;;;22.40;49.90;;;;;;5074799;28;20059;-46
2022/08/16 00:44:10;;;;;;;3.85;2.55;;;22.40;50.00;;;;;;5074505;28;20052;-47
2022/08/16 00:46:42;;;;;;;3.38;2.22;;;22.40;50.00;;;;;;5074048;28;20518;-47
2022/08/16 00:49:11;;;;;;;3.70;2.20;;;22.40;50.10;;;;;;5080925;28;20043;-46
2022/08/16 00:51:40;;;;;;;3.17;2.30;;;22.40;50.10;;;;;;5073311;28;20487;-46
2022/08/16 00:54:08;;;;;;;4.75;2.30;;;22.40;50.20;;;;;;5075172;28;20541;-46
2022/08/16 00:56:40;;;;;;;2.10;1.90;;;22.40;50.20;;;;;;5078430;28;20048;-48
2022/08/16 00:59:10;;;;;;;3.80;2.05;;;22.40;50.30;;;;;;5076727;28;20063;-46
2022/08/16 01:01:38;;;;;;;3.53;2.30;;;22.40;50.30;;;;;;5074120;28;20056;-46
2022/08/16 01:04:06;;;;;;;3.60;1.90;;;22.40;50.30;;;;;;5079882;28;20063;-46
2022/08/16 01:06:34;;;;;;;3.10;2.35;;;22.40;50.30;;;;;;5074927;28;20055;-48
2022/08/16 01:09:05;;;;;;;2.20;1.90;;;22.30;50.30;;;;;;5075916;28;20059;-46
2022/08/16 01:11:33;;;;;;;2.22;1.95;;;22.30;50.40;;;;;;5076066;28;20052;-45
2022/08/16 01:14:09;;;;;;;2.67;2.10;;;22.30;50.40;;;;;;5074771;28;20495;-46
2022/08/16 01:16:37;;;;;;;2.92;2.33;;;22.30;50.50;;;;;;5076002;28;20048;-45
2022/08/16 01:19:14;;;;;;;2.95;2.30;;;22.30;50.50;;;;;;5076494;28;20051;-45
2022/08/16 01:21:49;;;;;;;2.60;2.35;;;22.30;50.60;;;;;;5067660;28;20052;-46
2022/08/16 01:24:27;;;;;;;2.28;2.05;;;22.30;50.70;;;;;;5072885;28;20062;-47
2022/08/16 01:27:00;;;;;;;3.40;2.15;;;22.30;50.70;;;;;;5073844;28;20059;-47
2022/08/16 01:29:34;;;;;;;4.93;2.60;;;22.30;50.80;;;;;;5072775;28;20063;-44
2022/08/16 01:32:01;;;;;;;4.47;2.28;;;22.30;50.70;;;;;;5074980;28;20056;-45
2022/08/16 01:34:30;;;;;;;3.08;2.10;;;22.30;50.70;;;;;;5072055;28;20048;-47
2022/08/16 01:37:00;;;;;;;2.70;2.10;;;22.30;50.70;;;;;;5072049;28;20044;-47
2022/08/16 01:39:30;;;;;;;2.30;2.10;;;22.30;50.80;;;;;;5062134;28;20056;-46
2022/08/16 01:41:57;;;;;;;2.72;2.05;;;22.30;50.80;;;;;;5068324;28;20053;-47
2022/08/16 01:44:24;;;;;;;3.30;2.17;;;22.30;50.80;;;;;;5071376;28;20044;-48
2022/08/16 01:46:54;;;;;;;3.40;2.22;;;22.30;50.90;;;;;;5077486;28;20052;-47
2022/08/16 01:49:25;;;;;;;3.22;2.10;;;22.30;50.90;;;;;;5073550;28;20051;-47
2022/08/16 01:51:56;;;;;;;4.10;2.47;;;22.30;51.00;;;;;;5067724;28;20048;-50
2022/08/16 01:54:23;;;;;;;6.75;2.33;;;22.30;51.00;;;;;;5071799;28;20411;-48
2022/08/16 01:56:52;;;;;;;3.45;1.95;;;22.20;51.00;;;;;;5078918;28;20059;-48
2022/08/16 01:59:19;;;;;;;3.35;2.55;;;22.20;51.10;;;;;;5077228;28;20047;-44
2022/08/16 02:01:49;;;;;;;6.97;2.47;;;22.20;51.10;;;;;;5071500;28;20051;-46
2022/08/16 02:04:16;;;;;;;4.07;1.92;;;22.30;51.20;;;;;;5072164;28;20476;-45
2022/08/16 02:06:44;;;;;;;2.97;2.40;;;22.20;51.20;;;;;;5080053;28;20059;-45
2022/08/16 02:09:11;;;;;;;3.40;2.38;;;22.20;51.20;;;;;;5076512;28;20048;-46
2022/08/16 02:11:40;;;;;;;4.10;2.15;;;22.20;51.20;;;;;;5075149;28;20807;-44
2022/08/16 02:14:09;;;;;;;5.28;2.30;;;22.20;51.20;;;;;;5074274;28;20403;-47
2022/08/16 02:16:36;;;;;;;3.80;3.00;;;22.20;51.30;;;;;;5077080;28;20407;-49
2022/08/16 02:19:04;;;;;;;2.80;2.40;;;22.20;51.40;;;;;;5077477;28;20419;-48
2022/08/16 02:21:31;;;;;;;3.17;2.35;;;22.20;51.40;;;;;;5073067;28;20044;-45
2022/08/16 02:23:59;;;;;;;2.50;2.15;;;22.20;51.50;;;;;;5071924;28;20554;-46
2022/08/16 02:26:26;;;;;;;4.60;2.50;;;22.20;51.50;;;;;;5077946;28;20051;-47
2022/08/16 02:28:53;;;;;;;2.75;2.22;;;22.20;51.60;;;;;;5070974;28;20092;-46
2022/08/16 02:31:22;;;;;;;2.50;2.30;;;22.20;51.60;;;;;;5070181;28;20407;-43
2022/08/16 02:33:50;;;;;;;4.05;2.30;;;22.20;51.60;;;;;;5079544;28;20060;-43
2022/08/16 02:36:18;;;;;;;4.45;2.60;;;22.20;51.60;;;;;;5078244;28;20510;-47
2022/08/16 02:38:46;;;;;;;4.13;2.88;;;22.20;51.60;;;;;;5069925;28;20492;-43
2022/08/16 02:41:14;;;;;;;2.33;2.13;;;22.10;51.60;;;;;;5070535;28;20056;-48
2022/08/16 02:43:41;;;;;;;3.17;2.55;;;22.20;51.70;;;;;;5077914;28;20514;-45
2022/08/16 02:46:09;;;;;;;4.50;2.38;;;22.20;51.80;;;;;;5078629;28;20052;-49
2022/08/16 02:48:38;;;;;;;2.67;2.15;;;22.20;51.80;;;;;;5080148;28;20079;-46
2022/08/16 02:51:07;;;;;;;3.03;2.25;;;22.10;51.70;;;;;;5072326;28;20056;-43
2022/08/16 02:53:35;;;;;;;2.88;2.50;;;22.10;51.70;;;;;;5081608;28;20044;-46
2022/08/16 02:56:04;;;;;;;3.67;2.60;;;22.10;51.70;;;;;;5080887;28;20063;-48
2022/08/16 02:58:32;;;;;;;3.92;2.70;;;22.10;51.70;;;;;;5075023;28;20071;-47
2022/08/16 03:01:00;;;;;;;5.18;2.85;;;22.10;51.80;;;;;;5074185;28;20056;-43
2022/08/16 03:03:28;;;;;;;3.13;2.50;;;22.10;51.80;;;;;;5078259;28;20056;-44
2022/08/16 03:05:57;;;;;;;3.45;2.40;;;22.10;51.70;;;;;;5079871;28;20054;-51
2022/08/16 03:08:24;;;;;;;3.05;2.65;;;22.10;51.80;;;;;;5079744;28;20040;-45
2022/08/16 03:10:52;;;;;;;3.42;2.35;;;22.10;51.90;;;;;;5074147;28;20953;-50
2022/08/16 03:13:19;;;;;;;4.00;2.78;;;22.00;51.80;;;;;;5071980;28;20492;-45
2022/08/16 03:15:47;;;;;;;3.80;2.40;;;22.00;51.90;;;;;;5069941;28;20047;-50
2022/08/16 03:18:15;;;;;;;3.47;2.55;;;22.00;51.80;;;;;;5078260;28;20498;-46
2022/08/16 03:20:42;;;;;;;3.92;2.60;;;22.00;51.90;;;;;;5067877;28;20427;-43
2022/08/16 03:23:11;;;;;;;3.08;2.72;;;22.00;52.00;;;;;;5074191;28;20442;-47
2022/08/16 03:25:38;;;;;;;5.03;3.00;;;22.00;52.00;;;;;;5073994;28;20530;-48
2022/08/16 03:28:06;;;;;;;3.78;2.83;;;22.00;52.00;;;;;;5068910;28;20476;-49
2022/08/16 03:30:35;;;;;;;4.22;2.80;;;22.00;52.10;;;;;;5065260;28;20411;-46
2022/08/16 03:33:04;;;;;;;4.93;2.88;;;21.90;52.10;;;;;;5073946;28;20502;-50
2022/08/16 03:35:33;;;;;;;4.35;2.70;;;21.90;52.10;;;;;;5070018;28;20060;-45
2022/08/16 03:38:04;;;;;;;4.38;2.63;;;21.90;52.10;;;;;;5072161;28;20060;-44
2022/08/16 03:40:34;;;;;;;4.28;3.08;;;21.90;52.20;;;;;;5074165;28;20056;-45
2022/08/16 03:43:02;;;;;;;4.60;2.92;;;21.90;52.30;;;;;;5081630;28;20613;-45
2022/08/16 03:45:30;;;;;;;6.03;4.07;;;21.80;52.20;;;;;;5078709;28;20052;-45
2022/08/16 03:47:57;;;;;;;5.75;3.42;;;21.80;52.20;;;;;;5080681;28;20044;-48
2022/08/16 03:50:25;;;;;;;3.85;2.72;;;21.80;52.30;;;;;;5069824;28;20388;-46
2022/08/16 03:52:52;;;;;;;2.97;2.65;;;21.80;52.40;;;;;;5079640;28;20520;-46
2022/08/16 03:55:19;;;;;;;2.90;2.28;;;21.80;52.40;;;;;;5079543;28;20056;-48
2022/08/16 03:57:48;;;;;;;4.22;2.88;;;21.80;52.40;;;;;;5080662;28;20056;-47
2022/08/16 04:00:18;;;;;;;3.10;2.45;;;21.70;52.40;;;;;;5070598;28;20043;-48
2022/08/16 04:02:46;;;;;;;4.00;3.10;;;21.70;52.40;;;;;;5080447;28;20055;-45
2022/08/16 04:05:15;;;;;;;3.50;3.05;;;21.70;52.50;;;;;;5078361;28;20052;-42
2022/08/16 04:07:43;;;;;;;3.40;2.70;;;21.70;52.60;;;;;;5076621;28;20074;-48
2022/08/16 04:10:12;;;;;;;4.25;2.78;;;21.70;52.60;;;;;;5066140;28;20079;-46
2022/08/16 04:12:40;;;;;;;4.45;2.83;;;21.70;52.70;;;;;;5051668;28;20060;-45
2022/08/16 04:15:12;;;;;;;4.88;3.30;;;21.70;52.80;;;;;;5049738;28;20056;-46
2022/08/16 04:17:40;;;;;;;3.60;2.67;;;21.70;52.90;;;;;;5064757;28;20118;-46
2022/08/16 04:20:09;;;;;;;4.45;3.30;;;21.60;52.80;;;;;;5078861;28;20052;-47
2022/08/16 04:22:37;;;;;;;5.28;2.83;;;21.60;52.90;;;;;;5073831;28;20052;-46
2022/08/16 04:25:05;;;;;;;25.70;15.52;;;21.60;52.90;;;;;;5078651;28;20404;-45
2022/08/16 04:27:33;;;;;;;11.02;7.03;;;21.60;53.00;;;;;;5078784;28;20060;-49
2022/08/16 04:30:00;;;;;;;6.95;4.03;;;21.60;53.00;;;;;;5068756;28;20052;-47
2022/08/16 04:32:29;;;;;;;4.28;3.47;;;21.60;53.10;;;;;;5036146;28;20061;-49
2022/08/16 04:34:56;;;;;;;3.88;3.17;;;21.60;53.20;;;;;;5036340;28;20060;-45
2022/08/16 04:37:23;;;;;;;4.32;3.08;;;21.60;53.20;;;;;;5039458;28;20060;-48
2022/08/16 04:39:50;;;;;;;13.60;9.32;;;21.60;53.20;;;;;;5034101;28;20063;-44
2022/08/16 04:42:18;;;;;;;8.60;6.88;;;21.60;53.30;;;;;;5032060;28;20049;-47
2022/08/16 04:44:46;;;;;;;12.18;7.80;;;21.60;53.40;;;;;;5041522;28;20057;-44
2022/08/16 04:47:14;;;;;;;6.55;4.85;;;21.60;53.40;;;;;;5035540;28;20505;-47
2022/08/16 04:49:43;;;;;;;5.28;3.58;;;21.60;53.40;;;;;;5015061;28;20054;-47
2022/08/16 04:52:11;;;;;;;4.30;3.42;;;21.60;53.50;;;;;;5019745;28;20057;-45
2022/08/16 04:54:39;;;;;;;4.95;3.38;;;21.50;53.50;;;;;;5013182;28;20048;-47
2022/08/16 04:57:06;;;;;;;3.13;2.83;;;21.50;53.60;;;;;;5010947;28;20422;-44
2022/08/16 04:59:33;;;;;;;5.13;2.90;;;21.50;53.70;;;;;;5010461;28;20053;-50
2022/08/16 05:02:01;;;;;;;5.82;3.10;;;21.50;53.70;;;;;;5017510;28;20062;-48
2022/08/16 05:04:30;;;;;;;6.30;3.38;;;21.50;53.80;;;;;;5032186;28;20052;-48
2022/08/16 05:06:59;;;;;;;3.05;2.70;;;21.50;53.90;;;;;;5026769;28;20057;-49
2022/08/16 05:09:26;;;;;;;4.40;3.60;;;21.50;53.90;;;;;;5031153;28;20060;-44
2022/08/16 05:11:54;;;;;;;6.00;3.28;;;21.50;54.10;;;;;;5030795;28;20049;-44
2022/08/16 05:14:23;;;;;;;3.67;3.00;;;21.50;54.20;;;;;;5030620;28;20484;-47
2022/08/16 05:16:51;;;;;;;4.28;3.22;;;21.50;54.20;;;;;;5030258;28;20068;-46
2022/08/16 05:19:19;;;;;;;3.42;3.10;;;21.60;54.30;;;;;;5036600;28;20049;-48
2022/08/16 05:21:47;;;;;;;4.60;3.20;;;21.60;54.40;;;;;;5026972;28;20049;-47
2022/08/16 05:24:16;;;;;;;3.78;3.15;;;21.60;54.40;;;;;;5036013;28;20053;-48
2022/08/16 05:26:43;;;;;;;4.70;3.13;;;21.60;54.40;;;;;;5031091;28;20053;-47
2022/08/16 05:29:11;;;;;;;4.93;3.40;;;21.60;54.50;;;;;;5034137;28;20045;-49
2022/08/16 05:31:38;;;;;;;8.98;3.47;;;21.60;55.00;;;;;;5026852;28;20058;-47
2022/08/16 05:34:06;;;;;;;5.15;3.65;;;21.60;54.60;;;;;;5031158;28;20045;-45
2022/08/16 05:36:35;;;;;;;6.82;3.42;;;21.60;54.70;;;;;;5032615;28;20621;-47
2022/08/16 05:39:02;;;;;;;5.78;3.08;;;21.60;54.80;;;;;;5034279;28;20049;-49
2022/08/16 05:41:31;;;;;;;6.28;3.55;;;21.60;54.80;;;;;;5029230;28;20060;-46
2022/08/16 05:43:59;;;;;;;4.80;3.65;;;21.70;54.90;;;;;;5027034;28;20060;-47
2022/08/16 05:46:26;;;;;;;5.32;3.55;;;21.70;54.90;;;;;;5031890;28;20060;-45
2022/08/16 05:48:53;;;;;;;5.97;3.40;;;21.70;55.10;;;;;;5037453;28;20484;-49
2022/08/16 05:51:21;;;;;;;5.97;3.42;;;21.80;55.20;;;;;;5024418;28;20123;-49
2022/08/16 05:53:48;;;;;;;6.57;3.75;;;21.80;55.20;;;;;;5040832;28;20052;-48
2022/08/16 05:56:15;;;;;;;4.97;3.35;;;21.80;55.30;;;;;;5037653;28;20386;-47
2022/08/16 05:58:43;;;;;;;4.05;3.28;;;21.80;55.80;;;;;;5026108;28;20054;-48
2022/08/16 06:01:11;;;;;;;6.05;3.60;;;21.90;55.40;;;;;;5025377;28;20060;-46
2022/08/16 06:03:38;;;;;;;7.13;3.55;;;21.90;55.40;;;;;;5031267;28;20055;-43
2022/08/16 06:06:06;;;;;;;5.10;3.60;;;21.90;55.50;;;;;;5038964;28;20132;-47
2022/08/16 06:08:33;;;;;;;4.95;3.58;;;22.00;55.60;;;;;;5040752;28;20060;-43
2022/08/16 06:11:00;;;;;;;5.38;3.55;;;22.00;55.60;;;;;;5032557;28;20067;-44
2022/08/16 06:13:27;;;;;;;6.22;3.42;;;22.10;55.80;;;;;;5034516;28;20057;-45
2022/08/16 06:15:56;;;;;;;6.25;4.05;;;22.10;55.90;;;;;;5032536;28;20061;-48
2022/08/16 06:18:23;;;;;;;4.70;3.35;;;22.20;56.00;;;;;;5043053;28;20045;-44
2022/08/16 06:20:50;;;;;;;5.10;3.80;;;22.20;55.80;;;;;;5035319;28;20230;-46
2022/08/16 06:23:17;;;;;;;5.90;3.80;;;22.30;55.70;;;;;;5036032;28;20057;-47
2022/08/16 06:25:45;;;;;;;4.35;3.35;;;22.30;55.70;;;;;;5040338;28;20485;-44
2022/08/16 06:28:12;;;;;;;4.55;3.50;;;22.30;55.70;;;;;;5039609;28;20053;-44
2022/08/16 06:30:40;;;;;;;4.53;3.53;;;22.40;55.70;;;;;;5033154;28;20124;-48
2022/08/16 06:33:09;;;;;;;3.28;2.97;;;22.40;55.60;;;;;;5043789;28;20657;-44
2022/08/16 06:35:36;;;;;;;6.40;4.03;;;22.50;55.50;;;;;;5040701;28;20049;-44
2022/08/16 06:38:04;;;;;;;4.72;3.42;;;22.50;55.30;;;;;;5036644;28;20059;-47
2022/08/16 06:40:31;;;;;;;6.05;3.33;;;22.60;55.20;;;;;;5034539;28;20062;-48
2022/08/16 06:42:58;;;;;;;5.20;3.63;;;22.60;55.10;;;;;;5031488;28;20063;-46
2022/08/16 06:45:26;;;;;;;4.72;3.33;;;22.70;55.30;;;;;;5036670;28;20504;-48
2022/08/16 06:47:53;;;;;;;3.40;2.75;;;22.70;55.20;;;;;;5043385;28;20060;-50
2022/08/16 06:50:23;;;;;;;9.68;3.70;;;22.80;55.30;;;;;;5024511;28;20053;-47
2022/08/16 06:52:50;;;;;;;6.28;3.65;;;22.80;55.40;;;;;;5038992;28;20053;-49
2022/08/16 06:55:18;;;;;;;3.88;3.10;;;22.90;55.30;;;;;;5041737;28;20515;-49
2022/08/16 06:57:45;;;;;;;4.30;3.05;;;22.90;55.10;;;;;;5031379;28;20057;-47
2022/08/16 07:00:14;;;;;;;4.63;3.75;;;23.00;55.10;;;;;;5036471;28;20045;-50
2022/08/16 07:02:43;;;;;;;8.30;3.88;;;23.00;55.20;;;;;;5041280;28;20056;-49
2022/08/16 07:05:11;;;;;;;4.07;3.00;;;23.10;55.20;;;;;;5039817;28;20057;-47
2022/08/16 07:07:41;;;;;;;5.53;3.40;;;23.10;54.90;;;;;;5043647;28;20090;-48
2022/08/16 07:10:09;;;;;;;5.50;3.05;;;23.20;54.80;;;;;;5038393;28;20519;-45
2022/08/16 07:12:38;;;;;;;8.98;5.55;;;23.20;54.70;;;;;;5040479;28;20055;-48
2022/08/16 07:15:07;;;;;;;16.48;8.55;;;23.30;54.60;;;;;;5039500;28;20053;-46
2022/08/16 07:17:35;;;;;;;5.57;4.32;;;23.30;54.60;;;;;;5039066;28;20041;-46
2022/08/16 07:20:03;;;;;;;4.35;3.70;;;23.40;54.50;;;;;;5033450;28;21266;-47
2022/08/16 07:22:30;;;;;;;5.35;3.50;;;23.40;54.50;;;;;;5037718;28;20060;-45
2022/08/16 07:25:00;;;;;;;6.90;3.70;;;23.50;54.30;;;;;;5037247;28;20053;-48
2022/08/16 07:27:27;;;;;;;8.55;3.97;;;23.50;54.10;;;;;;5030830;28;20049;-50
2022/08/16 07:29:54;;;;;;;5.22;3.40;;;23.60;54.20;;;;;;5035214;28;20049;-44
2022/08/16 07:32:22;;;;;;;5.78;3.22;;;23.60;54.10;;;;;;5039427;28;20053;-47
2022/08/16 07:34:49;;;;;;;3.95;2.97;;;23.70;54.10;;;;;;5027004;28;20060;-45
2022/08/16 07:37:18;;;;;;;4.30;3.03;;;23.70;53.90;;;;;;5041456;28;20053;-45
2022/08/16 07:39:45;;;;;;;3.80;3.33;;;23.80;53.70;;;;;;5034775;28;20056;-45
2022/08/16 07:42:14;;;;;;;4.50;3.05;;;23.80;53.70;;;;;;5030633;28;20053;-50
2022/08/16 07:44:41;;;;;;;7.18;3.67;;;23.90;53.80;;;;;;5033700;28;20052;-46
2022/08/16 07:47:08;;;;;;;4.13;3.13;;;24.00;53.60;;;;;;5040130;28;20484;-44
2022/08/16 07:49:35;;;;;;;5.75;3.50;;;24.00;53.40;;;;;;5037071;28;21220;-47
2022/08/16 07:52:03;;;;;;;3.83;3.22;;;24.10;53.40;;;;;;5034397;28;20083;-46
2022/08/16 07:54:30;;;;;;;4.82;2.75;;;24.10;53.40;;;;;;5038529;28;20520;-45
2022/08/16 07:56:57;;;;;;;5.57;3.28;;;24.20;53.10;;;;;;5034852;28;20509;-49
2022/08/16 07:59:26;;;;;;;5.78;3.25;;;24.30;53.00;;;;;;5036983;28;20048;-46
2022/08/16 08:01:54;;;;;;;3.95;2.85;;;24.30;52.90;;;;;;5032244;28;20061;-46
2022/08/16 08:04:21;;;;;;;5.68;2.97;;;24.30;52.90;;;;;;5035807;28;20064;-46
2022/08/16 08:06:50;;;;;;;4.72;3.47;;;24.40;52.80;;;;;;5034535;28;20064;-47
2022/08/16 08:09:17;;;;;;;4.03;2.80;;;24.40;52.80;;;;;;5041990;28;20056;-45
2022/08/16 08:11:45;;;;;;;5.18;2.90;;;24.50;52.80;;;;;;5030026;28;20049;-48
2022/08/16 08:14:13;;;;;;;4.88;3.15;;;24.50;52.60;;;;;;5036499;28;20064;-48
2022/08/16 08:16:42;;;;;;;6.15;3.10;;;24.60;52.30;;;;;;5035059;28;20049;-45
2022/08/16 08:19:11;;;;;;;3.97;2.88;;;24.70;52.20;;;;;;5042228;28;21084;-47
2022/08/16 08:21:40;;;;;;;3.08;2.75;;;24.80;52.20;;;;;;5033871;28;20393;-48
2022/08/16 08:24:08;;;;;;;4.93;3.20;;;24.80;51.90;;;;;;5040782;28;20056;-45
2022/08/16 08:26:36;;;;;;;4.40;3.03;;;24.90;51.80;;;;;;5037707;28;20045;-50
2022/08/16 08:29:04;;;;;;;3.83;2.72;;;24.90;51.70;;;;;;5039520;28;20044;-45
2022/08/16 08:31:35;;;;;;;4.72;2.90;;;25.00;51.50;;;;;;5032749;28;20430;-49
2022/08/16 08:34:05;;;;;;;6.43;3.75;;;25.00;51.50;;;;;;5036710;28;20068;-49
2022/08/16 08:36:35;;;;;;;4.20;2.70;;;25.10;51.10;;;;;;5042651;28;20079;-49
2022/08/16 08:39:04;;;;;;;8.00;2.97;;;25.10;51.00;;;;;;5035847;28;20067;-45
2022/08/16 08:41:31;;;;;;;5.47;3.30;;;25.20;50.80;;;;;;5030817;28;20056;-47
2022/08/16 08:43:59;;;;;;;4.60;2.90;;;25.20;50.80;;;;;;5038943;28;20049;-46
2022/08/16 08:46:27;;;;;;;4.32;2.90;;;25.30;50.60;;;;;;5034044;28;20052;-49
2022/08/16 08:48:55;;;;;;;3.35;3.05;;;25.30;50.40;;;;;;5029947;28;20057;-50
2022/08/16 08:51:24;;;;;;;4.80;2.95;;;25.40;50.20;;;;;;5030686;28;20640;-54
2022/08/16 08:53:52;;;;;;;6.45;3.15;;;25.40;50.10;;;;;;5040192;28;20052;-47
2022/08/16 08:56:20;;;;;;;7.47;2.80;;;25.50;50.00;;;;;;5036145;28;20049;-52
2022/08/16 08:58:47;;;;;;;4.47;3.10;;;25.50;50.00;;;;;;5037978;28;20049;-51
2022/08/16 09:01:16;;;;;;;4.10;2.30;;;25.60;49.90;;;;;;5027529;28;20054;-47
2022/08/16 09:03:43;;;;;;;4.95;3.08;;;25.60;49.80;;;;;;5033025;28;20057;-48
2022/08/16 09:06:10;;;;;;;4.88;2.80;;;25.70;49.60;;;;;;5039002;28;20060;-47
2022/08/16 09:08:39;;;;;;;3.70;2.80;;;25.70;49.50;;;;;;5036282;28;20049;-47
2022/08/16 09:11:07;;;;;;;5.38;3.35;;;25.70;49.30;;;;;;5029168;28;20049;-47
2022/08/16 09:13:34;;;;;;;4.10;2.58;;;25.80;49.30;;;;;;5033903;28;20053;-45
2022/08/16 09:16:01;;;;;;;4.43;2.92;;;25.80;49.30;;;;;;5038294;28;20061;-47
2022/08/16 09:18:30;;;;;;;6.15;2.78;;;25.90;49.30;;;;;;5038805;28;20052;-52
2022/08/16 09:20:58;;;;;;;4.35;2.85;;;26.00;49.20;;;;;;5034430;28;20436;-47
2022/08/16 09:23:26;;;;;;;4.20;2.78;;;26.00;49.00;;;;;;5032027;28;20053;-50
2022/08/16 09:25:55;;;;;;;6.20;3.22;;;26.10;48.90;;;;;;5041553;28;20053;-50
2022/08/16 09:28:22;;;;;;;3.58;2.60;;;26.10;48.80;;;;;;5040374;28;20057;-47
2022/08/16 09:30:50;;;;;;;5.50;2.97;;;26.20;48.70;;;;;;5031382;28;20439;-47
2022/08/16 09:33:18;;;;;;;3.00;2.40;;;26.20;49.10;;;;;;5042507;28;20072;-46
2022/08/16 09:35:46;;;;;;;5.05;3.05;;;26.30;48.60;;;;;;5036225;28;20053;-50
2022/08/16 09:38:13;;;;;;;4.53;2.78;;;26.30;48.00;;;;;;5032032;28;20428;-46
2022/08/16 09:40:42;;;;;;;6.40;3.05;;;26.40;47.80;;;;;;5033880;28;20056;-48
2022/08/16 09:43:12;;;;;;;7.72;4.30;;;26.40;47.90;;;;;;5038192;28;20053;-46
2022/08/16 09:45:42;;;;;;;6.70;3.05;;;26.50;47.80;;;;;;5037231;28;20075;-49
2022/08/16 09:48:10;;;;;;;6.88;3.35;;;26.50;47.60;;;;;;5038460;28;20057;-46
2022/08/16 09:50:38;;;;;;;9.38;3.30;;;26.60;46.50;;;;;;5031006;28;20041;-45
2022/08/16 09:53:08;;;;;;;3.75;3.13;;;26.60;46.10;;;;;;5036568;28;20063;-46
2022/08/16 09:55:35;;;;;;;8.38;3.25;;;26.70;46.00;;;;;;5041022;28;20056;-49
2022/08/16 09:58:03;;;;;;;4.30;2.80;;;26.70;46.40;;;;;;5038428;28;20056;-49
2022/08/16 10:00:31;;;;;;;7.68;2.72;;;26.70;46.50;;;;;;5022734;28;20045;-48
2022/08/16 10:02:59;;;;;;;33.13;4.50;;;26.70;46.30;;;;;;5039218;28;20048;-46
2022/08/16 10:05:26;;;;;;;4.90;2.83;;;26.80;46.30;;;;;;5035474;28;20497;-49
2022/08/16 10:07:53;;;;;;;5.18;2.67;;;26.80;46.20;;;;;;5040516;28;20429;-49
2022/08/16 10:10:21;;;;;;;5.53;2.75;;;26.90;46.20;;;;;;5028547;28;20050;-48
2022/08/16 10:15:36;;;;;;;6.80;2.80;;;26.90;46.10;;;;;;5028276;28;20064;-48
2022/08/16 10:18:06;;;;;;;7.38;3.03;;;27.10;46.20;;;;;;5037522;28;20058;-46
2022/08/16 10:20:35;;;;;;;9.30;3.40;;;27.10;46.20;;;;;;5038111;28;20044;-52
2022/08/16 10:23:03;;;;;;;4.60;2.78;;;27.10;45.80;;;;;;5038497;28;20416;-48
2022/08/16 10:25:30;;;;;;;17.10;3.55;;;27.20;45.70;;;;;;5028114;28;20057;-47
2022/08/16 10:27:59;;;;;;;49.15;4.90;;;27.30;45.30;;;;;;5029021;28;20539;-45
2022/08/16 10:30:26;;;;;;;10.43;3.22;;;27.30;45.40;;;;;;5032699;28;20049;-48
2022/08/16 10:32:55;;;;;;;6.38;3.00;;;27.40;45.20;;;;;;5039252;28;20064;-46
2022/08/16 10:35:22;;;;;;;3.50;2.60;;;27.50;44.90;;;;;;5035289;28;20049;-48
2022/08/16 10:37:50;;;;;;;6.50;3.25;;;27.50;45.10;;;;;;5031612;28;20052;-52
2022/08/16 10:40:18;;;;;;;4.28;2.53;;;27.60;44.50;;;;;;5033819;28;20049;-49
2022/08/16 10:42:45;;;;;;;9.02;2.70;;;27.70;43.80;;;;;;5031764;28;20057;-49
2022/08/16 10:45:12;;;;;;;4.85;2.58;;;27.70;41.70;;;;;;5036296;28;20520;-46
2022/08/16 10:47:40;;;;;;;5.40;2.80;;;27.70;41.40;;;;;;5038958;28;20516;-45
2022/08/16 10:50:10;;;;;;;3.90;2.85;;;27.80;42.00;;;;;;5035285;28;20399;-47
2022/08/16 10:52:37;;;;;;;11.68;3.55;;;27.80;42.80;;;;;;5036203;28;20167;-51
2022/08/16 10:55:09;;;;;;;6.90;3.10;;;27.80;42.60;;;;;;5030918;28;20061;-49
2022/08/16 10:57:36;;;;;;;4.35;2.80;;;27.90;42.70;;;;;;5027998;28;20412;-50
2022/08/16 11:00:08;;;;;;;9.95;3.40;;;27.90;42.60;;;;;;5032974;28;20053;-51
2022/08/16 11:02:35;;;;;;;7.32;3.13;;;27.90;42.30;;;;;;5034178;28;20504;-52
2022/08/16 11:05:03;;;;;;;6.07;3.80;;;27.90;42.10;;;;;;5037842;28;20048;-47
2022/08/16 11:07:32;;;;;;;10.13;3.30;;;28.00;42.50;;;;;;5043242;28;20412;-47
2022/08/16 11:10:01;;;;;;;6.60;3.25;;;28.00;42.70;;;;;;5037644;28;20515;-48
2022/08/16 11:12:28;;;;;;;8.98;3.28;;;28.10;42.30;;;;;;5041363;28;20408;-49
2022/08/16 11:14:55;;;;;;;7.95;3.58;;;28.20;41.60;;;;;;5041349;28;20060;-52
2022/08/16 11:17:22;;;;;;;11.25;2.92;;;28.20;41.50;;;;;;5040649;28;20053;-49
2022/08/16 11:19:49;;;;;;;4.03;2.90;;;28.20;42.10;;;;;;5038072;28;20056;-47
2022/08/16 11:22:18;;;;;;;7.10;3.25;;;28.30;41.90;;;;;;5038679;28;20060;-48
2022/08/16 11:24:47;;;;;;;5.88;2.70;;;28.40;41.80;;;;;;5039484;28;20052;-46
2022/08/16 11:27:17;;;;;;;4.82;2.95;;;28.40;42.00;;;;;;5040054;28;20059;-49
2022/08/16 11:29:44;;;;;;;3.63;2.78;;;28.50;41.70;;;;;;5035542;28;20060;-46
2022/08/16 11:32:11;;;;;;;3.10;2.50;;;28.60;41.80;;;;;;5039570;28;20060;-48
2022/08/16 11:34:39;;;;;;;5.43;2.70;;;28.60;41.80;;;;;;5041771;28;20059;-47
2022/08/16 11:37:06;;;;;;;7.28;3.10;;;28.60;41.30;;;;;;5038131;28;20072;-49
2022/08/16 11:39:34;;;;;;;4.72;2.78;;;28.70;39.90;;;;;;5040874;28;20436;-49
2022/08/16 11:42:02;;;;;;;3.35;2.40;;;28.70;40.50;;;;;;5035401;28;20056;-49
2022/08/16 11:44:29;;;;;;;5.25;3.00;;;28.70;40.80;;;;;;5037889;28;20497;-48
2022/08/16 11:46:56;;;;;;;5.05;3.17;;;28.80;41.00;;;;;;5039824;28;20496;-49
2022/08/16 11:49:24;;;;;;;10.95;3.67;;;28.90;40.80;;;;;;5039761;28;20412;-50
2022/08/16 11:51:51;;;;;;;6.35;3.05;;;28.90;40.20;;;;;;5032978;28;20052;-47
2022/08/16 11:54:19;;;;;;;3.55;2.35;;;28.90;40.50;;;;;;5040517;28;20056;-49
2022/08/16 11:56:52;;;;;;;5.70;3.10;;;29.00;40.50;;;;;;5044992;28;20500;-50
2022/08/16 11:59:22;;;;;;;3.10;2.67;;;29.00;40.00;;;;;;5040046;28;20424;-45
2022/08/16 12:01:49;;;;;;;7.70;3.00;;;29.10;40.10;;;;;;5031123;28;20048;-46
2022/08/16 12:04:16;;;;;;;5.20;3.00;;;29.20;40.00;;;;;;5041600;28;20067;-48
2022/08/16 12:06:43;;;;;;;5.10;2.85;;;29.20;40.50;;;;;;5041908;28;20057;-46
2022/08/16 12:09:10;;;;;;;5.18;2.88;;;29.20;40.00;;;;;;5035514;28;20059;-48
2022/08/16 12:11:37;;;;;;;8.48;2.97;;;29.30;40.00;;;;;;5039331;28;20500;-46
2022/08/16 12:14:06;;;;;;;4.70;2.60;;;29.30;39.60;;;;;;5038953;28;20493;-49
2022/08/16 12:16:36;;;;;;;4.90;2.95;;;29.40;39.30;;;;;;5039261;28;20127;-48
2022/08/16 12:19:06;;;;;;;9.60;2.92;;;29.40;38.70;;;;;;5037056;28;20060;-50
2022/08/16 12:21:34;;;;;;;3.63;2.38;;;29.40;38.50;;;;;;5029264;28;20581;-48
2022/08/16 12:24:01;;;;;;;4.78;2.88;;;29.50;39.00;;;;;;5036227;28;20064;-48
2022/08/16 12:26:28;;;;;;;4.82;2.95;;;29.50;39.00;;;;;;5043524;28;20504;-46
2022/08/16 12:28:56;;;;;;;4.20;2.40;;;29.60;38.50;;;;;;5039611;28;20091;-47
2022/08/16 12:31:23;;;;;;;6.03;2.85;;;29.60;38.00;;;;;;5035842;28;20052;-45
2022/08/16 12:33:52;;;;;;;4.25;2.53;;;29.60;37.40;;;;;;5039325;28;20056;-51
2022/08/16 12:36:20;;;;;;;3.95;2.85;;;29.70;37.50;;;;;;5037241;28;20052;-51
2022/08/16 12:38:47;;;;;;;3.22;2.35;;;29.70;37.20;;;;;;5041751;28;20060;-47
2022/08/16 12:41:15;;;;;;;5.72;2.70;;;29.70;37.40;;;;;;5034334;28;20052;-53
2022/08/16 12:43:42;;;;;;;3.70;2.55;;;29.70;37.40;;;;;;5036231;28;20060;-51
2022/08/16 12:46:11;;;;;;;3.25;2.70;;;29.80;37.20;;;;;;5037780;28;20508;-49
2022/08/16 12:51:27;;;;;;;5.30;2.53;;;29.80;37.50;;;;;;5036625;28;20120;-49
2022/08/16 12:53:56;;;;;;;4.32;2.67;;;29.90;37.20;;;;;;5028962;28;20064;-47
2022/08/16 12:56:26;;;;;;;4.72;2.63;;;29.90;37.30;;;;;;5038160;28;20060;-48